Time;durP1;ratioP1;P1;durP2;ratioP2;P2;SDS_P1;SDS_P2;PMS_P1;PMS_P2;Temp;Humidity;BMP_temperature;BMP_pressure;BME280_temperature;BME280_humidity;BME280_pressure;Samples;Min_cycle;Max_cycle;Signal;HPM_P1;HPM_P2
2021/08/07 00:00:01;;;;;;;;;;;;;;;16.66;100.00;99589.34;5114301;28;20429;-64
2021/08/07 00:02:45;;;;;;;;;;;;;;;16.66;100.00;99587.50;5112998;28;19986;-63
2021/08/07 00:05:29;;;;;;;;;;;;;;;16.67;100.00;99580.25;5114285;28;19980;-64
2021/08/07 00:10:59;;;;;;;;;;;;;;;16.54;100.00;99569.41;5031923;28;20431;-68
2021/08/07 00:13:43;;;;;;;;;;;;;;;16.47;100.00;99566.69;5033354;28;19968;-68
2021/08/07 00:16:27;;;;;;;;;;;;;;;16.39;100.00;99577.59;5046640;28;19963;-68
2021/08/07 00:19:11;;;;;;;;;;;;;;;16.33;100.00;99580.22;5032508;28;19963;-69
2021/08/07 00:21:54;;;;;;;;;;;;;;;16.27;100.00;99573.78;5018328;28;19928;-68
2021/08/07 00:24:38;;;;;;;;;;;;;;;16.21;100.00;99568.34;5033213;28;19940;-68
2021/08/07 00:27:22;;;;;;;;;;;;;;;16.18;100.00;99569.56;5032262;28;19924;-68
2021/08/07 00:30:07;;;;;;;;;;;;;;;16.15;100.00;99575.34;5032334;28;20027;-68
2021/08/07 00:32:51;;;;;;;;;;;;;;;16.11;100.00;99579.47;5018186;28;19923;-68
2021/08/07 00:35:34;;;;;;;;;;;;;;;16.07;100.00;99578.19;5018706;28;19928;-69
2021/08/07 00:38:18;;;;;;;;;;;;;;;16.04;100.00;99578.56;5032333;28;19924;-69
2021/08/07 00:41:02;;;;;;;;;;;;;;;16.03;100.00;99582.28;5033381;28;20030;-68
2021/08/07 00:43:46;;;;;;;;;;;;;;;16.02;100.00;99574.41;5032320;28;19970;-69
2021/08/07 00:46:30;;;;;;;;;;;;;;;16.00;100.00;99574.63;5032406;28;19932;-68
2021/08/07 00:49:14;;;;;;;;;;;;;;;15.98;100.00;99582.03;5031993;28;19940;-68
2021/08/07 00:51:58;;;;;;;;;;;;;;;15.97;100.00;99577.69;5032610;28;20282;-68
2021/08/07 00:54:42;;;;;;;;;;;;;;;15.91;100.00;99567.72;5018342;28;19923;-68
2021/08/07 00:57:26;;;;;;;;;;;;;;;15.93;100.00;99564.81;5032256;28;19971;-68
2021/08/07 01:00:10;;;;;;;;;;;;;;;15.94;100.00;99572.72;5018198;28;19923;-68
2021/08/07 01:03:06;;;;;;;;;;;;;;;15.95;100.00;99563.63;5031935;28;20341;-68
2021/08/07 01:05:55;;;;;;;;;;;;;;;15.97;100.00;99566.94;5033526;28;19940;-68
2021/08/07 01:08:40;;;;;;;;;;;;;;;15.97;100.00;99566.94;5036395;28;19924;-69
2021/08/07 01:11:24;;;;;;;;;;;;;;;15.96;100.00;99559.91;5021434;28;20063;-69
2021/08/07 01:14:08;;;;;;;;;;;;;;;15.98;100.00;99568.59;5036590;28;19924;-68
2021/08/07 01:16:52;;;;;;;;;;;;;;;16.00;100.00;99573.78;5035704;28;20286;-69
2021/08/07 01:19:38;;;;;;;;;;;;;;;16.01;100.00;99570.91;5021642;28;19926;-68
2021/08/07 01:22:23;;;;;;;;;;;;;;;16.03;100.00;99581.44;5035431;28;20020;-68
2021/08/07 01:25:09;;;;;;;;;;;;;;;16.05;100.00;99574.03;5021383;28;19975;-68
2021/08/07 01:27:52;;;;;;;;;;;;;;;16.08;100.00;99570.97;5035040;28;20437;-68
2021/08/07 01:30:36;;;;;;;;;;;;;;;16.11;100.00;99581.31;5034855;28;19928;-68
2021/08/07 01:33:20;;;;;;;;;;;;;;;16.12;100.00;99578.44;5034934;28;19959;-68
2021/08/07 01:36:05;;;;;;;;;;;;;;;16.13;100.00;99561.28;5035209;28;20520;-68
2021/08/07 01:38:48;;;;;;;;;;;;;;;16.17;100.00;99557.16;5034924;28;20027;-69
2021/08/07 01:41:32;;;;;;;;;;;;;;;16.19;100.00;99552.41;5035037;28;20309;-68
2021/08/07 01:44:16;;;;;;;;;;;;;;;16.21;100.00;99563.81;5035005;28;19924;-68
2021/08/07 01:47:02;;;;;;;;;;;;;;;16.23;100.00;99550.16;5020690;28;19971;-69
2021/08/07 01:49:54;;;;;;;;;;;;;;;16.25;100.00;99543.56;5034477;28;19924;-69
2021/08/07 01:52:41;;;;;;;;;;;;;;;16.26;100.00;99555.97;5035803;28;19970;-68
2021/08/07 01:55:25;;;;;;;;;;;;;;;16.23;100.00;99547.47;5034789;28;20092;-68
2021/08/07 01:58:10;;;;;;;;;;;;;;;16.23;100.00;99537.56;5034588;28;19923;-68
2021/08/07 02:00:53;;;;;;;;;;;;;;;16.25;100.00;99538.19;5034669;28;20416;-68
2021/08/07 02:03:38;;;;;;;;;;;;;;;16.26;100.00;99533.66;5034589;28;19924;-68
2021/08/07 02:06:21;;;;;;;;;;;;;;;16.29;100.00;99544.00;5020300;28;19924;-69
2021/08/07 02:09:05;;;;;;;;;;;;;;;16.26;100.00;99533.66;5020078;28;19927;-68
2021/08/07 02:11:49;;;;;;;;;;;;;;;16.25;100.00;99532.81;5020124;28;19928;-69
2021/08/07 02:14:33;;;;;;;;;;;;;;;16.26;100.00;99523.69;5034105;28;20032;-68
2021/08/07 02:17:17;;;;;;;;;;;;;;;16.27;100.00;99529.94;5020090;28;19923;-68
2021/08/07 02:20:01;;;;;;;;;;;;;;;16.26;100.00;99523.69;5020274;28;20052;-68
2021/08/07 02:22:46;;;;;;;;;;;;;;;16.28;100.00;99531.59;5035228;28;19928;-69
2021/08/07 02:25:30;;;;;;;;;;;;;;;16.31;100.00;99536.56;5033933;28;19924;-68
2021/08/07 02:28:14;;;;;;;;;;;;;;;16.28;100.00;99534.28;5035085;28;19967;-69
2021/08/07 02:30:58;;;;;;;;;;;;;;;16.30;100.00;99535.75;5034027;28;20474;-68
2021/08/07 02:33:42;;;;;;;;;;;;;;;16.29;100.00;99535.94;5033866;28;19924;-68
2021/08/07 02:36:26;;;;;;;;;;;;;;;16.30;100.00;99524.13;5034034;28;20016;-69
2021/08/07 02:39:10;;;;;;;;;;;;;;;16.31;100.00;99513.19;5033610;28;20058;-68
2021/08/07 02:41:55;;;;;;;;;;;;;;;16.33;100.00;99516.50;5034041;28;19924;-68
2021/08/07 02:44:39;;;;;;;;;;;;;;;16.34;100.00;99507.41;5019937;28;19962;-68
2021/08/07 02:47:23;;;;;;;;;;;;;;;16.38;100.00;99506.00;5033825;28;19941;-69
2021/08/07 02:50:07;;;;;;;;;;;;;;;16.42;100.00;99511.81;5019618;28;19967;-69
2021/08/07 02:52:51;;;;;;;;;;;;;;;16.42;100.00;99523.41;5019721;28;19923;-68
2021/08/07 02:55:34;;;;;;;;;;;;;;;16.42;100.00;99512.66;5033433;28;20013;-68
2021/08/07 02:58:19;;;;;;;;;;;;;;;16.42;100.00;99518.03;5033520;28;20050;-69
2021/08/07 03:01:02;;;;;;;;;;;;;;;16.43;100.00;99519.69;5033373;28;19924;-68
2021/08/07 03:03:46;;;;;;;;;;;;;;;16.43;100.00;99519.69;5033514;28;19971;-69
2021/08/07 03:06:30;;;;;;;;;;;;;;;16.44;100.00;99510.59;5033189;28;19979;-68
2021/08/07 03:09:14;;;;;;;;;;;;;;;16.44;100.00;99499.00;5019641;28;19967;-68
2021/08/07 03:11:58;;;;;;;;;;;;;;;16.44;100.00;99499.00;5032982;28;19979;-68
2021/08/07 03:14:43;;;;;;;;;;;;;;;16.44;100.00;99485.53;5034007;28;19963;-68
2021/08/07 03:17:26;;;;;;;;;;;;;;;16.44;100.00;99489.06;5033028;28;19924;-68
2021/08/07 03:20:10;;;;;;;;;;;;;;;16.44;100.00;99491.75;5033926;28;19924;-69
2021/08/07 03:22:54;;;;;;;;;;;;;;;16.43;100.00;99492.81;5019248;28;19923;-68
2021/08/07 03:25:38;;;;;;;;;;;;;;;16.41;100.00;99488.63;5033136;28;19924;-69
2021/08/07 03:28:22;;;;;;;;;;;;;;;16.39;100.00;99494.22;5032455;28;19924;-69
2021/08/07 03:31:05;;;;;;;;;;;;;;;16.37;100.00;99490.91;5019031;28;19932;-68
2021/08/07 03:33:49;;;;;;;;;;;;;;;16.37;100.00;99488.19;5033353;28;20329;-68
2021/08/07 03:36:33;;;;;;;;;;;;;;;16.43;100.00;99497.34;5033338;28;19924;-68
2021/08/07 03:39:17;;;;;;;;;;;;;;;16.44;100.00;99489.06;5032782;28;19924;-70
2021/08/07 03:42:01;;;;;;;;;;;;;;;16.42;100.00;99480.38;5032708;28;20378;-69
2021/08/07 03:44:45;;;;;;;;;;;;;;;16.39;100.00;99486.13;5032917;28;19936;-68
2021/08/07 03:47:29;;;;;;;;;;;;;;;16.38;100.00;99480.97;5032882;28;19931;-68
2021/08/07 03:50:13;;;;;;;;;;;;;;;16.33;100.00;99481.53;5032510;28;20024;-68
2021/08/07 03:52:57;;;;;;;;;;;;;;;16.33;100.00;99476.16;5032835;28;19967;-68
2021/08/07 03:55:40;;;;;;;;;;;;;;;16.39;100.00;99474.56;5033793;28;19924;-68
2021/08/07 03:58:24;;;;;;;;;;;;;;;16.47;100.00;99472.53;5033942;28;19924;-69
2021/08/07 04:01:08;;;;;;;;;;;;;;;16.48;100.00;99470.69;5033481;28;20436;-68
2021/08/07 04:03:52;;;;;;;;;;;;;;;16.45;100.00;99463.81;5033440;28;20446;-69
2021/08/07 04:06:36;;;;;;;;;;;;;;;16.46;100.00;99460.09;5033426;28;19924;-69
2021/08/07 04:09:20;;;;;;;;;;;;;;;16.47;100.00;99461.75;5032466;28;20413;-67
2021/08/07 04:12:04;;;;;;;;;;;;;;;16.51;100.00;99463.03;5032297;28;20010;-68
2021/08/07 04:14:48;;;;;;;;;;;;;;;16.58;100.00;99466.56;5032611;28;19924;-68
2021/08/07 04:17:32;;;;;;;;;;;;;;;16.58;100.00;99463.88;5033319;28;19940;-68
2021/08/07 04:20:16;;;;;;;;;;;;;;;16.60;100.00;99459.13;5032238;28;20070;-68
2021/08/07 04:22:59;;;;;;;;;;;;;;;16.67;100.00;99465.34;5032264;28;19967;-69
2021/08/07 04:25:43;;;;;;;;;;;;;;;16.62;100.00;99465.16;5032229;28;19940;-68
2021/08/07 04:28:27;;;;;;;;;;;;;;;16.61;100.00;99451.88;5032394;28;19971;-69
2021/08/07 04:31:11;;;;;;;;;;;;;;;16.61;100.00;99455.41;5033334;28;19928;-68
2021/08/07 04:33:55;;;;;;;;;;;;;;;16.63;100.00;99466.81;5033140;28;19927;-69
2021/08/07 04:36:39;;;;;;;;;;;;;;;16.64;100.00;99464.94;5032326;28;20022;-67
2021/08/07 04:39:23;;;;;;;;;;;;;;;16.69;100.00;99460.59;5032815;28;20289;-68
2021/08/07 04:42:07;;;;;;;;;;;;;;;16.68;100.00;99464.31;5036115;28;19924;-68
2021/08/07 04:44:51;;;;;;;;;;;;;;;16.69;100.00;99452.53;5035824;28;19970;-68
2021/08/07 04:47:35;;;;;;;;;;;;;;;16.74;100.00;99447.38;5036797;28;19924;-68
2021/08/07 04:50:19;;;;;;;;;;;;;;;16.80;100.00;99456.50;5021603;28;19928;-69
2021/08/07 04:53:03;;;;;;;;;;;;;;;16.82;100.00;99460.66;5036140;28;20290;-68
2021/08/07 04:55:47;;;;;;;;;;;;;;;16.86;100.00;99456.50;5036239;28;19923;-68
2021/08/07 04:58:30;;;;;;;;;;;;;;;16.89;100.00;99455.28;5035660;28;20397;-69
2021/08/07 05:01:14;;;;;;;;;;;;;;;16.96;100.00;99456.09;5035864;28;19924;-69
2021/08/07 05:03:58;;;;;;;;;;;;;;;17.02;100.00;99450.75;5036747;28;19924;-69
2021/08/07 05:06:44;;;;;;;;;;;;;;;17.06;100.00;99449.31;5035765;28;19924;-69
2021/08/07 05:09:27;;;;;;;;;;;;;;;17.09;100.00;99451.56;5035338;28;20008;-68
2021/08/07 05:12:11;;;;;;;;;;;;;;;17.12;100.00;99448.50;5035347;28;20337;-69
2021/08/07 05:14:55;;;;;;;;;;;;;;;17.18;100.00;99444.16;5035855;28;20052;-68
2021/08/07 05:17:39;;;;;;;;;;;;;;;17.23;100.00;99450.56;5036396;28;19924;-69
2021/08/07 05:20:23;;;;;;;;;;;;;;;17.33;100.00;99442.91;5035441;28;19924;-69
2021/08/07 05:23:07;;;;;;;;;;;;;;;17.40;100.00;99448.34;5035908;28;19967;-68
2021/08/07 05:25:51;;;;;;;;;;;;;;;17.47;100.00;99449.97;5020456;28;20305;-68
2021/08/07 05:28:35;;;;;;;;;;;;;;;17.49;100.00;99457.88;5020575;28;19963;-69
2021/08/07 05:31:18;;;;;;;;;;;;;;;17.54;100.00;99456.22;5035274;28;19967;-68
2021/08/07 05:34:02;;;;;;;;;;;;;;;17.61;100.00;99450.81;5020560;28;20059;-68
2021/08/07 05:36:46;;;;;;;;;;;;;;;17.69;100.00;99453.31;5034573;28;20066;-68
2021/08/07 05:39:30;;;;;;;;;;;;;;;17.74;100.00;99446.25;5034121;28;20298;-68
2021/08/07 05:42:14;;;;;;;;;;;;;;;17.77;100.00;99458.44;5034319;28;20377;-68
2021/08/07 05:44:58;;;;;;;;;;;;;;;17.84;100.00;99460.13;5020386;28;20020;-68
2021/08/07 05:47:42;;;;;;;;;;;;;;;17.85;100.00;99466.31;5034461;28;20015;-68
2021/08/07 05:50:26;;;;;;;;;;;;;;;17.84;100.00;99467.38;5019850;28;19931;-68
2021/08/07 05:53:09;;;;;;;;;;;;;;;17.94;100.00;99459.69;5034918;28;19924;-67
2021/08/07 05:55:54;;;;;;;;;;;;;;;18.00;100.00;99456.97;5020400;28;20274;-68
2021/08/07 05:58:38;;;;;;;;;;;;;;;18.10;100.00;99460.06;5035510;28;19989;-68
2021/08/07 06:01:22;;;;;;;;;;;;;;;18.15;100.00;99457.56;5034089;28;20043;-68
2021/08/07 06:04:05;;;;;;;;;;;;;;;18.15;100.00;99460.28;5033978;28;19927;-68
2021/08/07 06:06:49;;;;;;;;;;;;;;;18.29;100.00;99466.47;5033686;28;19923;-67
2021/08/07 06:09:33;;;;;;;;;;;;;;;18.38;100.00;99460.63;5036067;28;19924;-68
2021/08/07 06:12:17;;;;;;;;;;;;;;;18.52;100.00;99462.22;5033850;28;19932;-68
2021/08/07 06:15:01;;;;;;;;;;;;;;;18.66;100.00;99447.66;5033502;28;20058;-68
2021/08/07 06:17:45;;;;;;;;;;;;;;;18.78;100.00;99451.31;5033703;28;19936;-68
2021/08/07 06:20:29;;;;;;;;;;;;;;;18.74;100.00;99456.31;5034363;28;19963;-68
2021/08/07 06:23:13;;;;;;;;;;;;;;;18.64;100.00;99441.59;5033553;28;20012;-68
2021/08/07 06:25:57;;;;;;;;;;;;;;;18.64;100.00;99452.41;5033558;28;19928;-69
2021/08/07 06:28:41;;;;;;;;;;;;;;;18.73;100.00;99448.41;5019664;28;19944;-68
2021/08/07 06:31:24;;;;;;;;;;;;;;;18.78;100.00;99438.63;5034457;28;20286;-68
2021/08/07 06:34:08;;;;;;;;;;;;;;;18.94;100.00;99434.59;5019201;28;20267;-69
2021/08/07 06:36:52;;;;;;;;;;;;;;;19.18;100.00;99441.97;5033364;28;20294;-67
2021/08/07 06:39:36;;;;;;;;;;;;;;;19.40;97.16;99430.53;5033382;28;19979;-68
2021/08/07 06:42:20;;;;;;;;;;;;;;;19.60;93.98;99430.38;5019210;28;19924;-68
2021/08/07 06:45:04;;;;;;;;;;;;;;;19.76;93.99;99429.78;5033171;28;19963;-68
2021/08/07 06:47:48;;;;;;;;;;;;;;;19.84;92.78;99440.34;5019144;28;19939;-68
2021/08/07 06:50:32;;;;;;;;;;;;;;;19.78;93.46;99433.94;5019000;28;19928;-68
2021/08/07 06:53:16;;;;;;;;;;;;;;;19.82;92.94;99434.31;5034132;28;19928;-68
2021/08/07 06:56:00;;;;;;;;;;;;;;;19.94;94.12;99436.09;5034030;28;19928;-69
2021/08/07 06:58:44;;;;;;;;;;;;;;;20.07;92.26;99443.25;5018879;28;20332;-69
2021/08/07 07:01:28;;;;;;;;;;;;;;;20.13;90.73;99447.78;5032874;28;19923;-68
2021/08/07 07:04:12;;;;;;;;;;;;;;;20.19;88.30;99447.69;5031933;28;19923;-68
2021/08/07 07:06:57;;;;;;;;;;;;;;;20.20;88.79;99443.13;5033557;28;19979;-68
2021/08/07 07:09:40;;;;;;;;;;;;;;;20.37;88.75;99438.75;5032426;28;19967;-69
2021/08/07 07:12:24;;;;;;;;;;;;;;;20.50;89.02;99444.00;5032712;28;19928;-68
2021/08/07 07:15:09;;;;;;;;;;;;;;;20.52;87.35;99450.84;5033775;28;19936;-68
2021/08/07 07:17:53;;;;;;;;;;;;;;;20.34;87.36;99458.16;5032457;28;20038;-68
2021/08/07 07:20:37;;;;;;;;;;;;;;;20.34;86.11;99453.56;5032511;28;19967;-69
2021/08/07 07:23:21;;;;;;;;;;;;;;;20.43;86.32;99456.78;5032282;28;19924;-69
2021/08/07 07:26:05;;;;;;;;;;;;;;;20.40;84.85;99451.84;5032478;28;19963;-69
2021/08/07 07:28:49;;;;;;;;;;;;;;;20.33;86.15;99461.91;5018362;28;19967;-68
2021/08/07 07:31:33;;;;;;;;;;;;;;;20.51;85.22;99457.31;5033355;28;20283;-68
2021/08/07 07:34:17;;;;;;;;;;;;;;;20.60;84.00;99445.09;5033109;28;19931;-68
2021/08/07 07:37:00;;;;;;;;;;;;;;;20.66;82.63;99441.50;5032256;28;20420;-68
2021/08/07 07:39:44;;;;;;;;;;;;;;;20.69;82.10;99437.50;5032160;28;19963;-69
2021/08/07 07:42:28;;;;;;;;;;;;;;;20.74;82.42;99430.31;5031958;28;20024;-69
2021/08/07 07:45:12;;;;;;;;;;;;;;;21.06;80.23;99423.66;5032112;28;19967;-69
2021/08/07 07:47:56;;;;;;;;;;;;;;;21.26;75.24;99397.91;5032500;28;19971;-68
2021/08/07 07:50:40;;;;;;;;;;;;;;;21.46;73.13;99403.81;5032832;28;20465;-69
2021/08/07 07:53:24;;;;;;;;;;;;;;;21.52;72.79;99405.59;5031912;28;20394;-68
2021/08/07 07:56:08;;;;;;;;;;;;;;;21.73;73.84;99405.06;5032069;28;20028;-68
2021/08/07 07:58:52;;;;;;;;;;;;;;;21.86;73.15;99410.22;5033011;28;19948;-68
2021/08/07 08:01:36;;;;;;;;;;;;;;;21.55;71.17;99417.84;5031798;28;19971;-69
2021/08/07 08:04:19;;;;;;;;;;;;;;;21.83;70.80;99421.56;5031986;28;19925;-69
2021/08/07 08:07:03;;;;;;;;;;;;;;;21.84;71.15;99419.66;5032801;28;20007;-69
2021/08/07 08:09:47;;;;;;;;;;;;;;;22.02;70.56;99423.06;5031798;28;20385;-69
2021/08/07 08:12:31;;;;;;;;;;;;;;;22.32;69.56;99417.47;5032598;28;19943;-69
2021/08/07 08:15:15;;;;;;;;;;;;;;;22.54;68.37;99416.63;5035256;28;19924;-69
2021/08/07 08:17:59;;;;;;;;;;;;;;;22.48;67.91;99409.44;5035614;28;19967;-69
2021/08/07 08:20:42;;;;;;;;;;;;;;;22.60;66.78;99418.38;5035861;28;19925;-69
2021/08/07 08:23:26;;;;;;;;;;;;;;;22.67;67.68;99424.50;5035536;28;19923;-69
2021/08/07 08:26:10;;;;;;;;;;;;;;;22.79;66.89;99422.56;5035430;28;19975;-69
2021/08/07 08:28:54;;;;;;;;;;;;;;;22.60;67.09;99423.81;5035443;28;20396;-69
2021/08/07 08:31:39;;;;;;;;;;;;;;;22.95;64.20;99427.22;5035296;28;20022;-69
2021/08/07 08:34:22;;;;;;;;;;;;;;;23.13;62.96;99424.28;5036532;28;20022;-69
2021/08/07 08:37:07;;;;;;;;;;;;;;;22.75;63.19;99405.09;5036204;28;19924;-69
2021/08/07 08:39:50;;;;;;;;;;;;;;;22.73;64.40;99409.91;5035210;28;19970;-68
2021/08/07 08:42:34;;;;;;;;;;;;;;;22.97;64.38;99407.94;5021350;28;19986;-69
2021/08/07 08:45:18;;;;;;;;;;;;;;;23.24;64.10;99393.50;5035050;28;19940;-68
2021/08/07 08:48:02;;;;;;;;;;;;;;;23.44;64.05;99403.91;5034993;28;20401;-68
2021/08/07 08:50:46;;;;;;;;;;;;;;;23.64;64.14;99391.44;5034971;28;19932;-68
2021/08/07 08:53:32;;;;;;;;;;;;;;;23.38;62.11;99394.84;5035136;28;20294;-68
2021/08/07 08:56:16;;;;;;;;;;;;;;;23.25;61.50;99397.03;5036116;28;19966;-68
2021/08/07 08:59:01;;;;;;;;;;;;;;;23.26;61.43;99391.38;5034597;28;19924;-68
2021/08/07 09:01:46;;;;;;;;;;;;;;;23.34;61.52;99390.94;5021084;28;19975;-68
2021/08/07 09:04:30;;;;;;;;;;;;;;;23.33;63.14;99381.13;5034694;28;19990;-68
2021/08/07 09:07:14;;;;;;;;;;;;;;;23.66;60.99;99381.13;5020962;28;19975;-68
2021/08/07 09:09:58;;;;;;;;;;;;;;;24.17;59.92;99388.94;5020474;28;20001;-68
2021/08/07 09:12:47;;;;;;;;;;;;;;;24.38;58.20;99396.34;5035141;28;20294;-68
2021/08/07 09:15:33;;;;;;;;;;;;;;;24.37;58.65;99400.09;5035779;28;19924;-69
2021/08/07 09:18:18;;;;;;;;;;;;;;;24.49;58.17;99392.66;5035687;28;19936;-69
2021/08/07 09:21:09;;;;;;;;;;;;;;;24.61;57.99;99391.44;5034707;28;19923;-69
2021/08/07 09:24:05;;;;;;;;;;;;;;;24.42;56.54;99381.91;5020359;28;20231;-66
2021/08/07 09:26:59;;;;;;;;;;;;;;;24.67;56.97;99384.16;5019257;28;19967;-68
2021/08/07 09:29:43;;;;;;;;;;;;;;;25.05;56.90;99390.31;5034106;28;19924;-69
2021/08/07 09:32:27;;;;;;;;;;;;;;;24.93;56.17;99399.72;5035265;28;19928;-69
2021/08/07 09:35:12;;;;;;;;;;;;;;;24.86;56.08;99399.91;5034130;28;20051;-68
2021/08/07 09:38:02;;;;;;;;;;;;;;;24.32;57.24;99397.34;5034240;28;19932;-68
2021/08/07 09:40:47;;;;;;;;;;;;;;;23.62;58.96;99401.75;5035061;28;19932;-69
2021/08/07 09:43:34;;;;;;;;;;;;;;;23.55;60.92;99394.81;5034334;28;19923;-68
2021/08/07 09:46:21;;;;;;;;;;;;;;;23.47;63.27;99398.78;5033872;28;20350;-68
2021/08/07 09:49:05;;;;;;;;;;;;;;;23.38;61.07;99411.16;5020372;28;19924;-69
2021/08/07 09:51:52;;;;;;;;;;;;;;;23.43;60.74;99405.78;5034933;28;19944;-68
2021/08/07 09:54:37;;;;;;;;;;;;;;;23.10;62.13;99392.13;5033884;28;19970;-67
2021/08/07 09:57:28;;;;;;;;;;;;;;;23.21;63.59;99393.19;5019956;28;19967;-68
2021/08/07 10:00:12;;;;;;;;;;;;;;;23.49;62.34;99391.22;5019707;28;19924;-68
2021/08/07 10:03:03;;;;;;;;;;;;;;;23.19;62.49;99396.13;5033689;28;19935;-68
2021/08/07 10:05:47;;;;;;;;;;;;;;;22.96;64.00;99401.69;5020403;28;19924;-64
2021/08/07 10:08:38;;;;;;;;;;;;;;;23.17;64.03;99392.84;5020410;28;19923;-67
2021/08/07 10:11:26;;;;;;;;;;;;;;;23.38;65.41;99383.94;5019951;28;19936;-68
2021/08/07 10:14:11;;;;;;;;;;;;;;;23.39;64.99;99369.28;5020372;28;19924;-68
2021/08/07 10:16:55;;;;;;;;;;;;;;;23.42;64.49;99363.34;5020515;28;20037;-67
2021/08/07 10:19:39;;;;;;;;;;;;;;;23.57;65.04;99344.53;5019785;28;20282;-66
2021/08/07 10:22:22;;;;;;;;;;;;;;;23.31;64.07;99358.81;5033272;28;20286;-67
2021/08/07 10:25:08;;;;;;;;;;;;;;;23.42;64.63;99363.34;5019472;28;19928;-66
2021/08/07 10:27:56;;;;;;;;;;;;;;;23.22;64.44;99367.63;5033310;28;20488;-67
2021/08/07 10:30:40;;;;;;;;;;;;;;;23.35;64.77;99362.66;5032951;28;20074;-67
2021/08/07 10:33:24;;;;;;;;;;;;;;;23.48;63.85;99364.25;5033321;28;19978;-67
2021/08/07 10:36:08;;;;;;;;;;;;;;;23.26;65.09;99356.03;5033246;28;19925;-66
2021/08/07 10:38:53;;;;;;;;;;;;;;;23.22;65.01;99368.44;5018663;28;20036;-66
2021/08/07 10:41:36;;;;;;;;;;;;;;;23.08;63.47;99388.84;5018890;28;19927;-67
2021/08/07 10:44:20;;;;;;;;;;;;;;;22.83;65.61;99399.25;5032611;28;19924;-66
2021/08/07 10:47:04;;;;;;;;;;;;;;;22.60;66.36;99385.78;5033702;28;20388;-67
2021/08/07 10:49:49;;;;;;;;;;;;;;;22.71;67.20;99390.31;5018428;28;20290;-67
2021/08/07 10:52:34;;;;;;;;;;;;;;;22.64;67.05;99384.22;5032926;28;19948;-66
2021/08/07 10:55:37;;;;;;;;;;;;;;;22.61;66.14;99381.97;5034198;28;20014;-67
2021/08/07 10:58:34;;;;;;;;;;;;;;;22.45;67.85;99388.19;5033017;28;19924;-67
2021/08/07 11:01:26;;;;;;;;;;;;;;;22.38;69.08;99375.78;5032877;28;20458;-67
2021/08/07 11:04:12;;;;;;;;;;;;;;;22.24;69.78;99374.41;5033704;28;19984;-67
2021/08/07 11:07:00;;;;;;;;;;;;;;;22.17;70.84;99376.41;5032718;28;19927;-66
2021/08/07 11:09:44;;;;;;;;;;;;;;;22.07;71.67;99366.19;5032148;28;19924;-67
2021/08/07 11:12:28;;;;;;;;;;;;;;;21.95;73.29;99365.38;5018445;28;19928;-65
2021/08/07 11:15:12;;;;;;;;;;;;;;;21.87;73.69;99363.03;5032578;28;20425;-66
2021/08/07 11:17:56;;;;;;;;;;;;;;;22.01;74.46;99375.28;5033529;28;20366;-65
2021/08/07 11:20:42;;;;;;;;;;;;;;;22.01;73.89;99359.00;5032498;28;20028;-67
2021/08/07 11:23:26;;;;;;;;;;;;;;;22.09;74.37;99361.34;5032270;28;19928;-66
2021/08/07 11:26:10;;;;;;;;;;;;;;;21.98;75.11;99356.75;5018647;28;19923;-67
2021/08/07 11:29:04;;;;;;;;;;;;;;;21.79;75.05;99349.00;5033504;28;19924;-67
2021/08/07 11:32:08;;;;;;;;;;;;;;;21.97;76.70;99341.53;5032009;28;19979;-67
2021/08/07 11:34:51;;;;;;;;;;;;;;;21.79;76.94;99338.97;5033279;28;19928;-67
2021/08/07 11:37:38;;;;;;;;;;;;;;;21.82;78.62;99345.81;5032506;28;19923;-65
2021/08/07 11:40:22;;;;;;;;;;;;;;;21.72;79.17;99354.56;5018545;28;19990;-67
2021/08/07 11:43:11;;;;;;;;;;;;;;;21.49;80.35;99348.28;5032100;28;20016;-67
2021/08/07 11:45:55;;;;;;;;;;;;;;;21.18;79.57;99360.28;5032117;28;19986;-66
2021/08/07 11:48:39;;;;;;;;;;;;;;;20.93;83.92;99369.66;5032600;28;19940;-67
2021/08/07 11:51:24;;;;;;;;;;;;;;;20.66;86.68;99367.53;5031991;28;20412;-66
2021/08/07 11:54:12;;;;;;;;;;;;;;;20.29;88.65;99365.94;5031963;28;19971;-67
2021/08/07 11:56:56;;;;;;;;;;;;;;;19.90;90.95;99366.41;5031868;28;20250;-67
2021/08/07 11:59:40;;;;;;;;;;;;;;;19.72;95.86;99364.50;5032811;28;20020;-67
2021/08/07 12:02:24;;;;;;;;;;;;;;;19.60;98.03;99365.50;5031703;28;19959;-67
2021/08/07 12:05:08;;;;;;;;;;;;;;;19.58;98.25;99386.53;5032841;28;19924;-65
2021/08/07 12:08:08;;;;;;;;;;;;;;;19.37;100.00;99378.81;5032213;28;19963;-67
2021/08/07 12:10:53;;;;;;;;;;;;;;;19.25;100.00;99375.16;5033144;28;19979;-68
2021/08/07 12:13:37;;;;;;;;;;;;;;;18.86;100.00;99380.84;5033038;28;19955;-67
2021/08/07 12:16:29;;;;;;;;;;;;;;;18.66;100.00;99396.34;5031592;28;19967;-67
2021/08/07 12:19:16;;;;;;;;;;;;;;;18.32;100.00;99412.91;5032539;28;19924;-67
2021/08/07 12:22:04;;;;;;;;;;;;;;;18.13;100.00;99400.28;5031568;28;19924;-67
2021/08/07 12:24:59;;;;;;;;;;;;;;;18.06;100.00;99404.91;5032838;28;20024;-68
2021/08/07 12:27:59;;;;;;;;;;;;;;;18.11;100.00;99396.16;5017814;28;20020;-67
2021/08/07 12:30:50;;;;;;;;;;;;;;;18.02;100.00;99384.75;5031494;28;19979;-68
2021/08/07 12:33:38;;;;;;;;;;;;;;;18.03;100.00;99391.81;5031746;28;19924;-67
2021/08/07 12:36:21;;;;;;;;;;;;;;;18.02;100.00;99384.75;5032745;28;20448;-68
2021/08/07 12:39:05;;;;;;;;;;;;;;;18.06;100.00;99386.00;5031353;28;20381;-68
2021/08/07 12:41:49;;;;;;;;;;;;;;;18.13;100.00;99392.19;5031645;28;19925;-67
2021/08/07 12:44:34;;;;;;;;;;;;;;;18.20;100.00;99403.78;5031565;28;19970;-68
2021/08/07 12:47:24;;;;;;;;;;;;;;;18.19;100.00;99402.13;5031580;28;19940;-68
2021/08/07 12:50:15;;;;;;;;;;;;;;;18.31;100.00;99399.66;5017381;28;19971;-68
2021/08/07 12:53:03;;;;;;;;;;;;;;;18.42;100.00;99394.38;5017249;28;19925;-67
2021/08/07 12:55:49;;;;;;;;;;;;;;;18.49;100.00;99381.69;5017236;28;19924;-68
2021/08/07 12:58:33;;;;;;;;;;;;;;;18.54;100.00;99371.91;5031533;28;19925;-67
2021/08/07 13:01:17;;;;;;;;;;;;;;;18.53;100.00;99361.31;5019123;28;19928;-68
2021/08/07 13:04:09;;;;;;;;;;;;;;;18.62;100.00;99349.22;5021126;28;19940;-66
2021/08/07 13:07:00;;;;;;;;;;;;;;;18.62;100.00;99346.53;5035270;28;20420;-67
2021/08/07 13:09:44;;;;;;;;;;;;;;;18.65;100.00;99348.78;5020677;28;19924;-68
2021/08/07 13:12:28;;;;;;;;;;;;;;;18.60;100.00;99379.16;5034675;28;19928;-69
2021/08/07 13:15:12;;;;;;;;;;;;;;;18.59;100.00;99409.06;5020576;28;20028;-67
2021/08/07 13:17:56;;;;;;;;;;;;;;;18.58;100.00;99419.00;5020586;28;19927;-67
2021/08/07 13:20:41;;;;;;;;;;;;;;;18.48;100.00;99423.22;5034714;28;19964;-68
2021/08/07 13:23:36;;;;;;;;;;;;;;;18.57;100.00;99413.84;5034548;28;19924;-67
2021/08/07 13:26:20;;;;;;;;;;;;;;;18.65;100.00;99382.00;5034627;28;19943;-67
2021/08/07 13:29:15;;;;;;;;;;;;;;;18.56;100.00;99361.72;5035367;28;19940;-68
2021/08/07 13:31:58;;;;;;;;;;;;;;;18.58;100.00;99343.44;5034466;28;20039;-68
2021/08/07 13:34:42;;;;;;;;;;;;;;;18.61;100.00;99320.56;5034472;28;19955;-67
2021/08/07 13:37:26;;;;;;;;;;;;;;;18.61;100.00;99288.19;5034716;28;19994;-68
2021/08/07 13:40:11;;;;;;;;;;;;;;;18.65;100.00;99306.44;5035095;28;20298;-67
2021/08/07 13:42:55;;;;;;;;;;;;;;;18.65;100.00;99354.19;5034451;28;19966;-68
2021/08/07 13:45:42;;;;;;;;;;;;;;;18.67;100.00;99403.41;5035280;28;19979;-67
2021/08/07 13:48:26;;;;;;;;;;;;;;;18.68;100.00;99391.56;5034198;28;20339;-68
2021/08/07 13:51:10;;;;;;;;;;;;;;;18.65;100.00;99381.16;5034115;28;19927;-68
2021/08/07 13:53:54;;;;;;;;;;;;;;;18.62;100.00;99378.91;5035065;28;20290;-68
2021/08/07 13:56:38;;;;;;;;;;;;;;;18.68;100.00;99348.38;5034072;28;19925;-68
2021/08/07 13:59:22;;;;;;;;;;;;;;;18.87;100.00;99363.59;5033710;28;19924;-67
2021/08/07 14:02:06;;;;;;;;;;;;;;;18.99;100.00;99365.34;5033736;28;19924;-67
2021/08/07 14:04:50;;;;;;;;;;;;;;;19.10;100.00;99372.75;5020240;28;20024;-67
2021/08/07 14:07:34;;;;;;;;;;;;;;;19.16;100.00;99368.34;5019656;28;20004;-68
2021/08/07 14:10:18;;;;;;;;;;;;;;;19.34;100.00;99376.53;5033267;28;19928;-68
2021/08/07 14:13:02;;;;;;;;;;;;;;;19.45;100.00;99370.41;5033067;28;19924;-68